Starship Express — WCZ3442 — position and weather

sailwx.info

Track history (hours):
 
Tides and Currents Weather Stations Pressure Air Temp Water Temp Dewpoint Dewpoint Depression Visibility Wind Speed Wind Dir Waves Ship Positions

Starship Express

Owner: CATALINA CHANNEL EXPRESS INC, SAN PEDRO, CA. More information available from US FCC via Universal Licensing System and Coast Guard Vessel Documentation Center.

Last reported at 2018-May-25 13:58 UTC. Time now 2018-May-25 14:35 UTC.
Position N 33°45' W 118°16'.

Length 41 m; draft 3 m.

Type: High speed craft. MMSI: 366768030.

Date/timePositionNaut miles runAvg speedWind from/ knotsBaromVisibWave heightAir tempDewpointWater temp
2018-May-25 13:58N 33°45' W 118°16'0 0.0
2018-May-25 13:28N 33°45' W 118°16'0 0.0
2018-May-25 12:55N 33°45' W 118°16'0 0.0
2018-May-25 01:54N 33°45' W 118°16'2 3.9
2018-May-25 01:30N 33°43' W 118°16'3 0.9
2018-May-24 22:23N 33°41' W 118°16'410.9
2018-May-24 22:00N 33°45' W 118°17'0 0.4
2018-May-24 21:28N 33°45' W 118°16'0 0.0
2018-May-24 20:58N 33°45' W 118°16'0 0.0
2018-May-24 20:28N 33°45' W 118°16'0 0.0
2018-May-24 19:58N 33°45' W 118°16'0 0.1
2018-May-24 19:30N 33°45' W 118°16'510.0
2018-May-24 19:00N 33°40' W 118°16'4 1.3
2018-May-24 16:24N 33°37' W 118°16'718.7
2018-May-24 16:01N 33°44' W 118°16'1 2.0
2018-May-24 15:25N 33°45' W 118°16'0 0.0
2018-May-24 14:58N 33°45' W 118°16'1 2.6
2018-May-24 14:30N 33°44' W 118°16'4 8.1
2018-May-24 13:59N 33°45' W 118°12'0 0.0
2018-May-24 13:29N 33°45' W 118°12'0 0.0
2018-May-24 08:59N 33°45' W 118°12'0 0.0
2018-May-24 07:14N 33°45' W 118°12'0 0.0
2018-May-24 06:59N 33°45' W 118°12'0 0.0
2018-May-24 06:29N 33°45' W 118°12'0 0.0
2018-May-24 05:59N 33°45' W 118°12'0 0.0
2018-May-24 05:26N 33°45' W 118°12'0 0.0
2018-May-24 04:59N 33°45' W 118°12'0 0.0
2018-May-24 04:29N 33°45' W 118°12'0 0.0
2018-May-24 03:56N 33°45' W 118°12'0 0.0
2018-May-24 03:29N 33°45' W 118°12'0 0.0
2018-May-24 02:59N 33°45' W 118°12'0 0.0
2018-May-24 02:26N 33°45' W 118°12'0 0.0
2018-May-24 01:59N 33°45' W 118°12'0 0.0
2018-May-24 01:26N 33°45' W 118°12'0 0.0
2018-May-24 00:59N 33°45' W 118°12'0 0.0
2018-May-24 00:26N 33°45' W 118°12'0 0.0
2018-May-23 23:59N 33°45' W 118°12'0 0.0
2018-May-23 23:29N 33°45' W 118°12'0 0.0
2018-May-23 22:56N 33°45' W 118°12'0 0.0
2018-May-23 22:29N 33°45' W 118°12'0 0.0
2018-May-23 21:59N 33°45' W 118°12'0 0.0
2018-May-23 21:26N 33°45' W 118°12'0 0.0
2018-May-23 20:59N 33°45' W 118°12'0 0.0
2018-May-23 20:29N 33°45' W 118°12'0 0.0
2018-May-23 19:59N 33°45' W 118°12'0 0.0
2018-May-23 19:29N 33°45' W 118°12'0 0.0
2018-May-23 18:56N 33°45' W 118°12'0 0.0
2018-May-23 18:29N 33°45' W 118°12'0 0.0
2018-May-23 17:59N 33°45' W 118°12'0 0.0
2018-May-23 17:29N 33°45' W 118°12'0 0.0
2018-May-23 16:59N 33°45' W 118°12'0 0.0
2018-May-23 16:29N 33°45' W 118°12'0 0.0
2018-May-21 23:09N 33°45' W 118°12'0 0.0
2018-May-21 23:00N 33°45' W 118°12'0 0.0
2018-May-21 22:27N 33°45' W 118°12'0 0.0
2018-May-21 22:00N 33°45' W 118°12'0 0.0
2018-May-21 21:30N 33°45' W 118°12'0 0.0
2018-May-21 21:00N 33°45' W 118°12'1 0.0
2018-May-21 01:24N 33°46' W 118°12'614.3
2018-May-21 01:00N 33°40' W 118°11'5 2.6
2018-May-20 22:53N 33°35' W 118°14'1025.5
2018-May-20 22:30N 33°45' W 118°11'1 2.8
2018-May-20 21:59N 33°46' W 118°12'0 0.0
2018-May-20 21:29N 33°46' W 118°12'2 3.2
2018-May-20 21:00N 33°44' W 118°11'11 4.7
2018-May-20 18:40N 33°34' W 118°14'426.1
2018-May-20 18:30N 33°38' W 118°13'815.3
2018-May-20 18:00N 33°46' W 118°12'0 0.1
2018-May-20 17:29N 33°46' W 118°12'0 0.1
2018-May-20 16:59N 33°46' W 118°12'0 0.0
2018-May-20 16:29N 33°46' W 118°12'0 0.0
2018-May-20 15:59N 33°46' W 118°12'0 0.0
2018-May-20 15:29N 33°46' W 118°12'0 0.0
2018-May-20 14:59N 33°46' W 118°12'0 0.0
2018-May-20 14:29N 33°46' W 118°12'0 0.0
2018-May-20 13:59N 33°46' W 118°12'0 0.0
2018-May-20 13:29N 33°46' W 118°12'0 0.0
2018-May-20 12:59N 33°46' W 118°12'0 0.0
2018-May-20 12:29N 33°46' W 118°12'0 0.0
2018-May-20 11:50N 33°46' W 118°12'0 0.0
2018-May-20 11:29N 33°46' W 118°12'0 0.0
2018-May-20 10:59N 33°46' W 118°12'0 0.0
2018-May-20 10:29N 33°46' W 118°12'0 0.0
2018-May-20 09:59N 33°46' W 118°12'0 0.0
2018-May-20 09:29N 33°46' W 118°12'0 0.0
2018-May-20 08:59N 33°46' W 118°12'0 0.0
2018-May-20 08:29N 33°46' W 118°12'0 0.0
2018-May-20 07:59N 33°46' W 118°12'0 0.0
2018-May-20 07:29N 33°46' W 118°12'0 0.0
2018-May-20 06:59N 33°46' W 118°12'0 0.0
2018-May-20 06:29N 33°46' W 118°12'0 0.1
2018-May-20 05:58N 33°46' W 118°12'0 0.0
2018-May-20 05:25N 33°46' W 118°12'0 0.2
2018-May-20 05:00N 33°46' W 118°12'10 4.4
2018-May-20 02:38N 33°35' W 118°13'428.0
2018-May-20 02:30N 33°39' W 118°12'713.6
2018-May-20 02:00N 33°46' W 118°12'0 0.0
2018-May-20 01:30N 33°46' W 118°12'510.3
2018-May-20 01:00N 33°41' W 118°11'6 2.6
2018-May-19 22:50N 33°36' W 118°14'927.0
2018-May-19 22:30N 33°44' W 118°11'2 2.8
2018-May-19 21:56N 33°46' W 118°12'0 0.0
2018-May-19 21:26N 33°46' W 118°12'1 2.0
2018-May-19 21:00N 33°45' W 118°11'16 7.2
2018-May-19 18:47N 33°30' W 118°16'726.0
2018-May-19 18:30N 33°37' W 118°14'918.1
2018-May-19 18:01N 33°46' W 118°12'0 0.1
2018-May-19 17:29N 33°46' W 118°12'1 1.6
2018-May-19 17:00N 33°45' W 118°11'11 5.1
2018-May-19 14:54N 33°35' W 118°14'1025.5
2018-May-19 14:31N 33°44' W 118°11'2 2.2
2018-May-19 13:46N 33°46' W 118°12'0 0.0
2018-May-19 13:28N 33°46' W 118°12'0 0.1
2018-May-19 12:58N 33°46' W 118°12'0 0.0
2018-May-19 12:25N 33°46' W 118°12'0 0.1
2018-May-19 06:04N 33°45' W 118°12'0 6.7
2018-May-19 06:00N 33°45' W 118°11'7 3.2
2018-May-19 03:43N 33°38' W 118°13'627.0
2018-May-19 03:30N 33°44' W 118°11'2 3.9
2018-May-19 02:54N 33°46' W 118°12'0 0.4
2018-May-19 02:30N 33°46' W 118°12'14 6.1
2018-May-19 00:15N 33°32' W 118°16'726.3
2018-May-19 00:00N 33°39' W 118°13'713.1
2018-May-18 23:27N 33°46' W 118°12'0 0.0
2018-May-18 23:00N 33°46' W 118°12'0 0.0
2018-May-18 22:30N 33°46' W 118°12'0 0.0
2018-May-18 22:00N 33°46' W 118°12'0 0.0
2018-May-18 21:30N 33°46' W 118°12'1 1.1
2018-May-18 21:00N 33°45' W 118°11'13 5.6
2018-May-18 18:43N 33°33' W 118°15'525.9
2018-May-18 18:30N 33°38' W 118°13'812.3
2018-May-18 17:52N 33°46' W 118°12'0 0.0
2018-May-18 17:28N 33°46' W 118°12'0 0.1
2018-May-18 16:58N 33°46' W 118°12'0 0.0
2018-May-18 16:25N 33°46' W 118°12'0 0.0
2018-May-18 15:58N 33°46' W 118°12'0 0.0
2018-May-18 15:28N 33°46' W 118°12'0 0.0
2018-May-18 14:55N 33°46' W 118°12'0 0.0
2018-May-18 14:28N 33°46' W 118°12'0 0.0
2018-May-18 13:40N 33°46' W 118°12'0 0.0
2018-May-18 13:28N 33°46' W 118°12'0 0.0
2018-May-18 12:58N 33°46' W 118°12'0 0.0
2018-May-18 12:28N 33°46' W 118°12'0 0.0
2018-May-18 11:58N 33°46' W 118°12'0 0.0
2018-May-18 11:25N 33°46' W 118°12'0 0.0
2018-May-18 10:52N 33°46' W 118°12'0 0.0
2018-May-18 10:28N 33°46' W 118°12'0 0.0
2018-May-18 09:58N 33°46' W 118°12'0 0.0
2018-May-18 09:25N 33°46' W 118°12'0 0.0
2018-May-18 08:55N 33°46' W 118°12'0 0.0
2018-May-18 08:28N 33°46' W 118°12'0 0.0
2018-May-18 07:58N 33°46' W 118°12'0 0.0
2018-May-18 06:55N 33°46' W 118°12'0 0.0
2018-May-18 06:28N 33°46' W 118°12'0 0.0
2018-May-18 05:46N 33°46' W 118°12'0 0.0
2018-May-18 05:28N 33°46' W 118°12'0 0.0
2018-May-18 04:55N 33°46' W 118°12'0 0.0
2018-May-18 04:19N 33°46' W 118°12'0 0.0
2018-May-18 03:54N 33°46' W 118°12'0 0.0
2018-May-18 03:27N 33°46' W 118°12'0 0.0
2018-May-18 03:00N 33°46' W 118°12'0 0.0
2018-May-18 02:24N 33°46' W 118°12'0 0.0
2018-May-18 01:57N 33°46' W 118°12'0 0.0
2018-May-18 01:21N 33°46' W 118°12'0 0.0
2018-May-18 00:54N 33°46' W 118°12'0 0.0
2018-May-18 00:30N 33°46' W 118°12'0 0.0
2018-May-18 00:00N 33°46' W 118°12'0 0.0
2018-May-17 23:30N 33°46' W 118°12'0 0.0
2018-May-17 22:57N 33°46' W 118°12'0 0.0
2018-May-17 22:30N 33°46' W 118°12'0 0.0
2018-May-17 22:00N 33°46' W 118°12'0 0.0
2018-May-17 21:30N 33°46' W 118°12'0 0.0
2018-May-17 21:00N 33°46' W 118°12'0 0.0
2018-May-17 20:30N 33°46' W 118°12'0 0.0
2018-May-17 20:00N 33°46' W 118°12'0 0.0
2018-May-17 19:30N 33°46' W 118°12'0 0.0
2018-May-17 19:00N 33°46' W 118°12'0 0.0
2018-May-17 18:30N 33°46' W 118°12'0 0.0
2018-May-17 18:00N 33°46' W 118°12'0 0.0
2018-May-16 19:47N 33°46' W 118°12'0 0.0
2018-May-16 19:29N 33°46' W 118°12'0 0.0
2018-May-16 18:56N 33°46' W 118°12'0 0.0
2018-May-16 18:29N 33°46' W 118°12'0 0.0
2018-May-16 17:56N 33°46' W 118°12'0 0.0
2018-May-16 17:29N 33°46' W 118°12'0 0.0
2018-May-16 16:50N 33°46' W 118°12'0 0.0
2018-May-16 16:20N 33°46' W 118°12'0 0.0
2018-May-16 15:59N 33°46' W 118°12'0 0.0
2018-May-16 15:26N 33°46' W 118°12'0 0.0
2018-May-16 14:59N 33°46' W 118°12'0 0.0
2018-May-16 14:29N 33°46' W 118°12'0 0.0
2018-May-16 13:56N 33°46' W 118°12'0 0.0
2018-May-16 13:29N 33°46' W 118°12'0 0.0
2018-May-16 12:56N 33°46' W 118°12'0 0.0
2018-May-16 12:29N 33°46' W 118°12'0 0.0
2018-May-16 11:56N 33°46' W 118°12'0 0.0
2018-May-16 11:26N 33°46' W 118°12'0 0.0
2018-May-16 10:56N 33°46' W 118°12'0 0.0
2018-May-16 10:17N 33°46' W 118°12'0 0.0
2018-May-16 09:59N 33°46' W 118°12'0 0.0
2018-May-16 09:26N 33°46' W 118°12'0 0.0
2018-May-16 04:59N 33°46' W 118°12'0 0.0
2018-May-16 04:26N 33°46' W 118°12'0 0.0
2018-May-16 03:59N 33°46' W 118°12'0 0.0
2018-May-16 03:29N 33°46' W 118°12'0 0.0
2018-May-16 02:59N 33°46' W 118°12'0 0.0
2018-May-16 02:29N 33°46' W 118°12'0 0.0
2018-May-16 01:59N 33°46' W 118°12'0 0.0
2018-May-16 01:17N 33°46' W 118°12'0 0.0
2018-May-16 00:53N 33°46' W 118°12'0 0.0
2018-May-16 00:29N 33°46' W 118°12'0 0.0
2018-May-15 23:59N 33°46' W 118°12'0 0.0
2018-May-15 23:29N 33°46' W 118°12'0 0.0
2018-May-15 22:56N 33°46' W 118°12'0 0.0
2018-May-15 22:29N 33°46' W 118°12'0 0.0
2018-May-15 21:59N 33°46' W 118°12'0 0.0
2018-May-15 21:26N 33°46' W 118°12'0 0.0
2018-May-15 20:47N 33°46' W 118°12'0 0.0
2018-May-15 20:29N 33°46' W 118°12'0 0.0
2018-May-15 19:44N 33°46' W 118°12'0 0.0
2018-May-15 19:29N 33°46' W 118°12'0 0.0
2018-May-15 18:56N 33°46' W 118°12'0 0.0
2018-May-15 18:23N 33°46' W 118°12'0 0.0
2018-May-15 17:55N 33°46' W 118°12'0 0.0
2018-May-15 17:28N 33°46' W 118°12'0 0.0
2018-May-15 16:58N 33°46' W 118°12'0 0.0
2018-May-15 16:28N 33°46' W 118°12'0 0.0
2018-May-15 15:58N 33°46' W 118°12'0 0.0
2018-May-15 15:28N 33°46' W 118°12'0 0.0
2018-May-15 14:58N 33°46' W 118°12'0 0.0
2018-May-15 14:28N 33°46' W 118°12'  
Track history (hours):
 
Tides and Currents Weather Stations Pressure Air Temp Water Temp Dewpoint Dewpoint Depression Visibility Wind Speed Wind Dir Waves Ship Positions

Starship Express

Owner: CATALINA CHANNEL EXPRESS INC, SAN PEDRO, CA. More information available from US FCC via Universal Licensing System and Coast Guard Vessel Documentation Center.

Last reported at 2018-May-25 13:58 UTC. Time now 2018-May-25 14:35 UTC.
Position N 33°45' W 118°16'.

Length 41 m; draft 3 m.

Type: High speed craft. MMSI: 366768030.

Date/timePositionNaut miles runAvg speedWind from/ knotsBaromVisibWave heightAir tempDewpointWater temp
2018-May-25 13:58N 33°45' W 118°16'0 0.0
2018-May-25 13:28N 33°45' W 118°16'0 0.0
2018-May-25 12:55N 33°45' W 118°16'0 0.0
2018-May-25 01:54N 33°45' W 118°16'2 3.9
2018-May-25 01:30N 33°43' W 118°16'3 0.9
2018-May-24 22:23N 33°41' W 118°16'410.9
2018-May-24 22:00N 33°45' W 118°17'0 0.4
2018-May-24 21:28N 33°45' W 118°16'0 0.0
2018-May-24 20:58N 33°45' W 118°16'0 0.0
2018-May-24 20:28N 33°45' W 118°16'0 0.0
2018-May-24 19:58N 33°45' W 118°16'0 0.1
2018-May-24 19:30N 33°45' W 118°16'510.0
2018-May-24 19:00N 33°40' W 118°16'4 1.3
2018-May-24 16:24N 33°37' W 118°16'718.7
2018-May-24 16:01N 33°44' W 118°16'1 2.0
2018-May-24 15:25N 33°45' W 118°16'0 0.0
2018-May-24 14:58N 33°45' W 118°16'1 2.6
2018-May-24 14:30N 33°44' W 118°16'4 8.1
2018-May-24 13:59N 33°45' W 118°12'0 0.0
2018-May-24 13:29N 33°45' W 118°12'0 0.0
2018-May-24 08:59N 33°45' W 118°12'0 0.0
2018-May-24 07:14N 33°45' W 118°12'0 0.0
2018-May-24 06:59N 33°45' W 118°12'0 0.0
2018-May-24 06:29N 33°45' W 118°12'0 0.0
2018-May-24 05:59N 33°45' W 118°12'0 0.0
2018-May-24 05:26N 33°45' W 118°12'0 0.0
2018-May-24 04:59N 33°45' W 118°12'0 0.0
2018-May-24 04:29N 33°45' W 118°12'0 0.0
2018-May-24 03:56N 33°45' W 118°12'0 0.0
2018-May-24 03:29N 33°45' W 118°12'0 0.0
2018-May-24 02:59N 33°45' W 118°12'0 0.0
2018-May-24 02:26N 33°45' W 118°12'0 0.0
2018-May-24 01:59N 33°45' W 118°12'0 0.0
2018-May-24 01:26N 33°45' W 118°12'0 0.0
2018-May-24 00:59N 33°45' W 118°12'0 0.0
2018-May-24 00:26N 33°45' W 118°12'0 0.0
2018-May-23 23:59N 33°45' W 118°12'0 0.0
2018-May-23 23:29N 33°45' W 118°12'0 0.0
2018-May-23 22:56N 33°45' W 118°12'0 0.0
2018-May-23 22:29N 33°45' W 118°12'0 0.0
2018-May-23 21:59N 33°45' W 118°12'0 0.0
2018-May-23 21:26N 33°45' W 118°12'0 0.0
2018-May-23 20:59N 33°45' W 118°12'0 0.0
2018-May-23 20:29N 33°45' W 118°12'0 0.0
2018-May-23 19:59N 33°45' W 118°12'0 0.0
2018-May-23 19:29N 33°45' W 118°12'0 0.0
2018-May-23 18:56N 33°45' W 118°12'0 0.0
2018-May-23 18:29N 33°45' W 118°12'0 0.0
2018-May-23 17:59N 33°45' W 118°12'0 0.0
2018-May-23 17:29N 33°45' W 118°12'0 0.0
2018-May-23 16:59N 33°45' W 118°12'0 0.0
2018-May-23 16:29N 33°45' W 118°12'0 0.0
2018-May-21 23:09N 33°45' W 118°12'0 0.0
2018-May-21 23:00N 33°45' W 118°12'0 0.0
2018-May-21 22:27N 33°45' W 118°12'0 0.0
2018-May-21 22:00N 33°45' W 118°12'0 0.0
2018-May-21 21:30N 33°45' W 118°12'0 0.0
2018-May-21 21:00N 33°45' W 118°12'1 0.0
2018-May-21 01:24N 33°46' W 118°12'614.3
2018-May-21 01:00N 33°40' W 118°11'5 2.6
2018-May-20 22:53N 33°35' W 118°14'1025.5
2018-May-20 22:30N 33°45' W 118°11'1 2.8
2018-May-20 21:59N 33°46' W 118°12'0 0.0
2018-May-20 21:29N 33°46' W 118°12'2 3.2
2018-May-20 21:00N 33°44' W 118°11'11 4.7
2018-May-20 18:40N 33°34' W 118°14'426.1
2018-May-20 18:30N 33°38' W 118°13'815.3
2018-May-20 18:00N 33°46' W 118°12'0 0.1
2018-May-20 17:29N 33°46' W 118°12'0 0.1
2018-May-20 16:59N 33°46' W 118°12'0 0.0
2018-May-20 16:29N 33°46' W 118°12'0 0.0
2018-May-20 15:59N 33°46' W 118°12'0 0.0
2018-May-20 15:29N 33°46' W 118°12'0 0.0
2018-May-20 14:59N 33°46' W 118°12'0 0.0
2018-May-20 14:29N 33°46' W 118°12'0 0.0
2018-May-20 13:59N 33°46' W 118°12'0 0.0
2018-May-20 13:29N 33°46' W 118°12'0 0.0
2018-May-20 12:59N 33°46' W 118°12'0 0.0
2018-May-20 12:29N 33°46' W 118°12'0 0.0
2018-May-20 11:50N 33°46' W 118°12'0 0.0
2018-May-20 11:29N 33°46' W 118°12'0 0.0
2018-May-20 10:59N 33°46' W 118°12'0 0.0
2018-May-20 10:29N 33°46' W 118°12'0 0.0
2018-May-20 09:59N 33°46' W 118°12'0 0.0
2018-May-20 09:29N 33°46' W 118°12'0 0.0
2018-May-20 08:59N 33°46' W 118°12'0 0.0
2018-May-20 08:29N 33°46' W 118°12'0 0.0
2018-May-20 07:59N 33°46' W 118°12'0 0.0
2018-May-20 07:29N 33°46' W 118°12'0 0.0
2018-May-20 06:59N 33°46' W 118°12'0 0.0
2018-May-20 06:29N 33°46' W 118°12'0 0.1
2018-May-20 05:58N 33°46' W 118°12'0 0.0
2018-May-20 05:25N 33°46' W 118°12'0 0.2
2018-May-20 05:00N 33°46' W 118°12'10 4.4
2018-May-20 02:38N 33°35' W 118°13'428.0
2018-May-20 02:30N 33°39' W 118°12'713.6
2018-May-20 02:00N 33°46' W 118°12'0 0.0
2018-May-20 01:30N 33°46' W 118°12'510.3
2018-May-20 01:00N 33°41' W 118°11'6 2.6
2018-May-19 22:50N 33°36' W 118°14'927.0
2018-May-19 22:30N 33°44' W 118°11'2 2.8
2018-May-19 21:56N 33°46' W 118°12'0 0.0
2018-May-19 21:26N 33°46' W 118°12'1 2.0
2018-May-19 21:00N 33°45' W 118°11'16 7.2
2018-May-19 18:47N 33°30' W 118°16'726.0
2018-May-19 18:30N 33°37' W 118°14'918.1
2018-May-19 18:01N 33°46' W 118°12'0 0.1
2018-May-19 17:29N 33°46' W 118°12'1 1.6
2018-May-19 17:00N 33°45' W 118°11'11 5.1
2018-May-19 14:54N 33°35' W 118°14'1025.5
2018-May-19 14:31N 33°44' W 118°11'2 2.2
2018-May-19 13:46N 33°46' W 118°12'0 0.0
2018-May-19 13:28N 33°46' W 118°12'0 0.1
2018-May-19 12:58N 33°46' W 118°12'0 0.0
2018-May-19 12:25N 33°46' W 118°12'0 0.1
2018-May-19 06:04N 33°45' W 118°12'0 6.7
2018-May-19 06:00N 33°45' W 118°11'7 3.2
2018-May-19 03:43N 33°38' W 118°13'627.0
2018-May-19 03:30N 33°44' W 118°11'2 3.9
2018-May-19 02:54N 33°46' W 118°12'0 0.4
2018-May-19 02:30N 33°46' W 118°12'14 6.1
2018-May-19 00:15N 33°32' W 118°16'726.3
2018-May-19 00:00N 33°39' W 118°13'713.1
2018-May-18 23:27N 33°46' W 118°12'0 0.0
2018-May-18 23:00N 33°46' W 118°12'0 0.0
2018-May-18 22:30N 33°46' W 118°12'0 0.0
2018-May-18 22:00N 33°46' W 118°12'0 0.0
2018-May-18 21:30N 33°46' W 118°12'1 1.1
2018-May-18 21:00N 33°45' W 118°11'13 5.6
2018-May-18 18:43N 33°33' W 118°15'525.9
2018-May-18 18:30N 33°38' W 118°13'812.3
2018-May-18 17:52N 33°46' W 118°12'0 0.0
2018-May-18 17:28N 33°46' W 118°12'0 0.1
2018-May-18 16:58N 33°46' W 118°12'0 0.0
2018-May-18 16:25N 33°46' W 118°12'0 0.0
2018-May-18 15:58N 33°46' W 118°12'0 0.0
2018-May-18 15:28N 33°46' W 118°12'0 0.0
2018-May-18 14:55N 33°46' W 118°12'0 0.0
2018-May-18 14:28N 33°46' W 118°12'0 0.0
2018-May-18 13:40N 33°46' W 118°12'0 0.0
2018-May-18 13:28N 33°46' W 118°12'0 0.0
2018-May-18 12:58N 33°46' W 118°12'0 0.0
2018-May-18 12:28N 33°46' W 118°12'0 0.0
2018-May-18 11:58N 33°46' W 118°12'0 0.0
2018-May-18 11:25N 33°46' W 118°12'0 0.0
2018-May-18 10:52N 33°46' W 118°12'0 0.0
2018-May-18 10:28N 33°46' W 118°12'0 0.0
2018-May-18 09:58N 33°46' W 118°12'0 0.0
2018-May-18 09:25N 33°46' W 118°12'0 0.0
2018-May-18 08:55N 33°46' W 118°12'0 0.0
2018-May-18 08:28N 33°46' W 118°12'0 0.0
2018-May-18 07:58N 33°46' W 118°12'0 0.0
2018-May-18 06:55N 33°46' W 118°12'0 0.0
2018-May-18 06:28N 33°46' W 118°12'0 0.0
2018-May-18 05:46N 33°46' W 118°12'0 0.0
2018-May-18 05:28N 33°46' W 118°12'0 0.0
2018-May-18 04:55N 33°46' W 118°12'0 0.0
2018-May-18 04:19N 33°46' W 118°12'0 0.0
2018-May-18 03:54N 33°46' W 118°12'0 0.0
2018-May-18 03:27N 33°46' W 118°12'0 0.0
2018-May-18 03:00N 33°46' W 118°12'0 0.0
2018-May-18 02:24N 33°46' W 118°12'0 0.0
2018-May-18 01:57N 33°46' W 118°12'0 0.0
2018-May-18 01:21N 33°46' W 118°12'0 0.0
2018-May-18 00:54N 33°46' W 118°12'0 0.0
2018-May-18 00:30N 33°46' W 118°12'0 0.0
2018-May-18 00:00N 33°46' W 118°12'0 0.0
2018-May-17 23:30N 33°46' W 118°12'0 0.0
2018-May-17 22:57N 33°46' W 118°12'0 0.0
2018-May-17 22:30N 33°46' W 118°12'0 0.0
2018-May-17 22:00N 33°46' W 118°12'0 0.0
2018-May-17 21:30N 33°46' W 118°12'0 0.0
2018-May-17 21:00N 33°46' W 118°12'0 0.0
2018-May-17 20:30N 33°46' W 118°12'0 0.0
2018-May-17 20:00N 33°46' W 118°12'0 0.0
2018-May-17 19:30N 33°46' W 118°12'0 0.0
2018-May-17 19:00N 33°46' W 118°12'0 0.0
2018-May-17 18:30N 33°46' W 118°12'0 0.0
2018-May-17 18:00N 33°46' W 118°12'0 0.0
2018-May-16 19:47N 33°46' W 118°12'0 0.0
2018-May-16 19:29N 33°46' W 118°12'0 0.0
2018-May-16 18:56N 33°46' W 118°12'0 0.0
2018-May-16 18:29N 33°46' W 118°12'0 0.0
2018-May-16 17:56N 33°46' W 118°12'0 0.0
2018-May-16 17:29N 33°46' W 118°12'0 0.0
2018-May-16 16:50N 33°46' W 118°12'0 0.0
2018-May-16 16:20N 33°46' W 118°12'0 0.0
2018-May-16 15:59N 33°46' W 118°12'0 0.0
2018-May-16 15:26N 33°46' W 118°12'0 0.0
2018-May-16 14:59N 33°46' W 118°12'0 0.0
2018-May-16 14:29N 33°46' W 118°12'0 0.0
2018-May-16 13:56N 33°46' W 118°12'0 0.0
2018-May-16 13:29N 33°46' W 118°12'0 0.0
2018-May-16 12:56N 33°46' W 118°12'0 0.0
2018-May-16 12:29N 33°46' W 118°12'0 0.0
2018-May-16 11:56N 33°46' W 118°12'0 0.0
2018-May-16 11:26N 33°46' W 118°12'0 0.0
2018-May-16 10:56N 33°46' W 118°12'0 0.0
2018-May-16 10:17N 33°46' W 118°12'0 0.0
2018-May-16 09:59N 33°46' W 118°12'0 0.0
2018-May-16 09:26N 33°46' W 118°12'0 0.0
2018-May-16 04:59N 33°46' W 118°12'0 0.0
2018-May-16 04:26N 33°46' W 118°12'0 0.0
2018-May-16 03:59N 33°46' W 118°12'0 0.0
2018-May-16 03:29N 33°46' W 118°12'0 0.0
2018-May-16 02:59N 33°46' W 118°12'0 0.0
2018-May-16 02:29N 33°46' W 118°12'0 0.0
2018-May-16 01:59N 33°46' W 118°12'0 0.0
2018-May-16 01:17N 33°46' W 118°12'0 0.0
2018-May-16 00:53N 33°46' W 118°12'0 0.0
2018-May-16 00:29N 33°46' W 118°12'0 0.0
2018-May-15 23:59N 33°46' W 118°12'0 0.0
2018-May-15 23:29N 33°46' W 118°12'0 0.0
2018-May-15 22:56N 33°46' W 118°12'0 0.0
2018-May-15 22:29N 33°46' W 118°12'0 0.0
2018-May-15 21:59N 33°46' W 118°12'0 0.0
2018-May-15 21:26N 33°46' W 118°12'0 0.0
2018-May-15 20:47N 33°46' W 118°12'0 0.0
2018-May-15 20:29N 33°46' W 118°12'0 0.0
2018-May-15 19:44N 33°46' W 118°12'0 0.0
2018-May-15 19:29N 33°46' W 118°12'0 0.0
2018-May-15 18:56N 33°46' W 118°12'0 0.0
2018-May-15 18:23N 33°46' W 118°12'0 0.0
2018-May-15 17:55N 33°46' W 118°12'0 0.0
2018-May-15 17:28N 33°46' W 118°12'0 0.0
2018-May-15 16:58N 33°46' W 118°12'0 0.0
2018-May-15 16:28N 33°46' W 118°12'0 0.0
2018-May-15 15:58N 33°46' W 118°12'0 0.0
2018-May-15 15:28N 33°46' W 118°12'0 0.0
2018-May-15 14:58N 33°46' W 118°12'0 0.0
2018-May-15 14:28N 33°46' W 118°12'  

Dump ship's entire track history